Time;durP1;ratioP1;P1;durP2;ratioP2;P2;SDS_P1;SDS_P2;PMS_P1;PMS_P2;Temp;Humidity;BMP_temperature;BMP_pressure;BME280_temperature;BME280_humidity;BME280_pressure;Samples;Min_cycle;Max_cycle;Signal;HPM_P1;HPM_P2
2024/04/02 00:00:04;;;;;;;34.40;9.70;;;;;;;17.63;100.00;98496.66;108277;1255;59781;-63
2024/04/02 00:02:35;;;;;;;29.40;7.40;;;;;;;17.61;100.00;98495.48;108305;1254;72722;-64
2024/04/02 00:05:03;;;;;;;29.30;7.30;;;;;;;17.50;100.00;98492.02;108294;1254;69787;-63
2024/04/02 00:07:31;;;;;;;34.40;7.80;;;;;;;17.44;100.00;98485.48;108231;1254;71864;-63
2024/04/02 00:09:58;;;;;;;32.70;8.40;;;;;;;17.48;100.00;98481.94;108295;1253;60415;-63
2024/04/02 00:12:26;;;;;;;;;;;;;;;17.46;100.00;98481.77;108336;1254;60097;-63
2024/04/02 00:14:54;;;;;;;;;;;;;;;17.44;100.00;98485.48;108241;1254;75625;-63
2024/04/02 00:17:21;;;;;;;36.30;7.90;;;;;;;17.44;100.00;98483.52;108282;1254;68131;-63
2024/04/02 00:19:49;;;;;;;37.40;7.40;;;;;;;17.28;100.00;98484.22;108135;1254;72320;-63
2024/04/02 00:22:17;;;;;;;39.50;7.60;;;;;;;17.28;100.00;98483.55;108285;1257;61527;-63
2024/04/02 00:24:44;;;;;;;37.10;7.90;;;;;;;17.31;100.00;98487.33;108253;1253;62087;-63
2024/04/02 00:27:12;;;;;;;26.80;6.60;;;;;;;17.49;100.00;98484.64;108297;1253;73797;-64
2024/04/02 00:29:44;;;;;;;29.10;7.00;;;;;;;17.57;100.00;98486.95;108287;1254;70483;-63
2024/04/02 00:32:12;;;;;;;23.90;7.10;;;;;;;17.35;100.00;98480.05;108258;1254;73044;-63
2024/04/02 00:34:45;;;;;;;28.70;6.30;;;;;;;17.37;100.00;98478.26;108271;1253;61227;-63
2024/04/02 00:37:13;;;;;;;30.60;7.40;;;;;;;17.35;100.00;98473.85;108312;1254;59743;-63
2024/04/02 00:39:43;;;;;;;38.30;8.00;;;;;;;17.18;100.00;98473.64;108304;1253;73571;-63
2024/04/02 00:42:10;;;;;;;34.10;8.20;;;;;;;17.21;100.00;98468.38;108373;1253;69616;-63
2024/04/02 00:44:38;;;;;;;38.70;6.60;;;;;;;17.37;100.00;98462.52;108164;1255;72351;-63
2024/04/02 00:47:08;;;;;;;34.60;8.80;;;;;;;17.17;100.00;98464.67;108086;1254;63662;-62
2024/04/02 00:49:36;;;;;;;32.70;7.70;;;;;;;17.13;100.00;98468.58;108305;1255;60558;-62
2024/04/02 00:52:04;;;;;;;30.90;7.10;;;;;;;17.12;100.00;98464.38;108261;1254;72836;-61
2024/04/02 00:54:31;;;;;;;27.40;6.60;;;;;;;17.30;100.00;98457.45;108207;1254;69154;-66
2024/04/02 00:56:59;;;;;;;39.90;7.70;;;;;;;17.17;100.00;98453.53;107901;1253;72239;-65
2024/04/02 00:59:29;;;;;;;32.20;7.50;;;;;;;17.15;100.00;98456.83;108232;1254;60707;-64
2024/04/02 01:01:56;;;;;;;49.50;7.70;;;;;;;17.33;100.00;98456.71;108141;1254;59698;-64
2024/04/02 01:04:24;;;;;;;26.20;7.70;;;;;;;17.39;100.00;98454.02;108282;1254;74555;-64
2024/04/02 01:06:52;;;;;;;;;;;;;;;17.43;100.00;98451.52;108203;1254;69577;-63
2024/04/02 01:09:20;;;;;;;30.10;6.10;;;;;;;17.44;100.00;98447.61;108325;1254;72882;-63
2024/04/02 01:11:49;;;;;;;30.60;6.50;;;;;;;17.38;100.00;98441.92;107948;1259;61602;-64
2024/04/02 01:14:16;;;;;;;31.30;6.60;;;;;;;17.33;100.00;98441.14;108111;1254;60129;-65
2024/04/02 01:16:44;;;;;;;31.60;6.80;;;;;;;17.28;100.00;98438.73;108334;1254;76313;-62
2024/04/02 01:19:12;;;;;;;29.10;5.70;;;;;;;17.26;100.00;98439.58;108313;1253;69128;-57
2024/04/02 01:21:40;;;;;;;34.30;6.60;;;;;;;17.28;100.00;98439.75;108251;1255;72896;-63
2024/04/02 01:24:08;;;;;;;33.60;7.50;;;;;;;17.30;100.00;98440.70;108323;1254;61369;-63
2024/04/02 01:26:35;;;;;;;38.40;7.10;;;;;;;17.31;100.00;98442.89;108136;1254;60099;-63
2024/04/02 01:29:03;;;;;;;34.70;6.20;;;;;;;17.15;100.00;98434.92;108310;1253;74052;-62
2024/04/02 01:31:31;;;;;;;29.70;6.50;;;;;;;17.00;100.00;98425.25;108580;1251;69169;-63
2024/04/02 01:33:59;;;;;;;30.40;6.50;;;;;;;16.93;100.00;98420.93;108590;1251;72345;-63
2024/04/02 01:36:27;;;;;;;25.70;7.10;;;;;;;16.85;100.00;98415.84;108350;1254;62604;-63
2024/04/02 01:38:54;;;;;;;;;;;;;;;16.94;100.00;98408.13;108522;1251;60130;-63
2024/04/02 01:41:22;;;;;;;36.40;7.70;;;;;;;16.85;100.00;98411.60;108587;1252;74075;-63
2024/04/02 01:43:49;;;;;;;27.20;7.10;;;;;;;16.92;100.00;98404.38;108591;1250;69873;-63
2024/04/02 01:46:18;;;;;;;;;;;;;;;16.93;100.00;98403.55;108547;1251;72355;-64
2024/04/02 01:48:46;;;;;;;26.50;6.00;;;;;;;16.92;100.00;98402.21;108586;1251;61895;-62
2024/04/02 01:51:13;;;;;;;28.30;7.00;;;;;;;16.98;100.00;98401.05;108651;1249;60774;-62
2024/04/02 01:53:42;;;;;;;29.90;6.30;;;;;;;16.92;100.00;98395.21;108548;1250;73674;-62
2024/04/02 01:56:10;;;;;;;30.60;6.60;;;;;;;16.76;100.00;98400.13;108571;1249;69350;-62
2024/04/02 01:58:38;;;;;;;37.40;7.70;;;;;;;16.67;100.00;98397.49;108603;1251;71673;-62
2024/04/02 02:01:05;;;;;;;35.20;6.80;;;;;;;16.65;100.00;98394.50;108405;1251;60761;-63
2024/04/02 02:03:33;;;;;;;26.90;6.60;;;;;;;16.71;100.00;98389.72;108576;1252;59610;-62
2024/04/02 02:06:00;;;;;;;29.90;6.70;;;;;;;16.70;100.00;98383.67;108611;1250;73589;-62
2024/04/02 02:08:28;;;;;;;26.00;6.80;;;;;;;16.81;100.00;98378.58;108626;1250;70099;-62
2024/04/02 02:10:56;;;;;;;29.40;6.70;;;;;;;16.77;100.00;98374.19;108521;1251;71222;-62
2024/04/02 02:13:24;;;;;;;;;;;;;;;16.62;100.00;98372.31;108496;1251;61664;-62
2024/04/02 02:16:00;;;;;;;35.80;6.20;;;;;;;16.63;100.00;98370.66;108585;1251;59932;-63
2024/04/02 02:18:28;;;;;;;35.00;6.70;;;;;;;16.56;100.00;98369.86;108563;1251;75841;-62
2024/04/02 02:20:56;;;;;;;23.70;6.30;;;;;;;16.66;100.00;98366.10;108332;1251;70113;-62
2024/04/02 02:23:24;;;;;;;;;;;;;;;16.50;100.00;98367.70;108574;1255;73416;-62
2024/04/02 02:25:52;;;;;;;27.50;6.30;;;;;;;16.51;100.00;98365.71;108588;1249;61394;-62
2024/04/02 02:28:20;;;;;;;29.40;6.40;;;;;;;16.62;100.00;98369.34;108635;1251;60083;-62
2024/04/02 02:30:47;;;;;;;25.60;6.80;;;;;;;16.59;100.00;98365.81;108618;1250;73822;-62
2024/04/02 02:33:15;;;;;;;31.10;6.30;;;;;;;16.63;100.00;98356.66;108584;1250;69087;-62
2024/04/02 02:35:51;;;;;;;26.40;5.70;;;;;;;16.46;100.00;98352.70;108645;1250;73564;-62
2024/04/02 02:38:19;;;;;;;26.30;6.50;;;;;;;16.48;100.00;98349.44;108602;1251;61567;-62
2024/04/02 02:40:48;;;;;;;31.00;6.20;;;;;;;16.47;100.00;98352.56;108606;1251;59091;-63
2024/04/02 02:43:15;;;;;;;28.90;5.80;;;;;;;16.37;100.00;98354.55;108549;1249;73573;-62
2024/04/02 02:45:50;;;;;;;37.50;6.80;;;;;;;16.29;100.00;98353.75;108633;1251;69265;-62
2024/04/02 02:48:18;;;;;;;32.20;6.80;;;;;;;16.29;100.00;98355.86;108573;1251;71624;-64
2024/04/02 02:50:45;;;;;;;;;;;;;;;16.41;100.00;98357.36;108520;1251;61505;-62
2024/04/02 02:53:13;;;;;;;34.10;7.10;;;;;;;16.42;100.00;98357.33;108631;1251;62729;-62
2024/04/02 02:55:53;;;;;;;36.30;6.90;;;;;;;16.43;100.00;98359.11;108595;1251;74367;-63
2024/04/02 02:58:20;;;;;;;27.00;5.90;;;;;;;16.33;100.00;98365.59;108334;1249;69173;-62
2024/04/02 03:00:48;;;;;;;;;;;;;;;16.37;100.00;98361.41;108653;1251;72917;-62
2024/04/02 03:03:16;;;;;;;;;;;;;;;16.37;100.00;98361.45;108544;1251;61909;-62
2024/04/02 03:05:53;;;;;;;28.30;6.10;;;;;;;16.32;100.00;98353.52;108648;1250;59467;-62
2024/04/02 03:08:21;;;;;;;31.00;6.50;;;;;;;16.27;100.00;98353.08;108572;1251;74462;-62
2024/04/02 03:11:03;;;;;;;31.50;6.50;;;;;;;16.26;100.00;98353.16;108579;1251;72047;-63
2024/04/02 03:13:31;;;;;;;24.30;5.70;;;;;;;16.32;100.00;98349.61;108532;1251;71423;-62
2024/04/02 03:16:00;;;;;;;28.50;5.50;;;;;;;16.29;100.00;98347.91;108593;1251;62188;-61
2024/04/02 03:18:27;;;;;;;38.90;6.60;;;;;;;16.27;100.00;98346.54;108577;1249;59767;-62
2024/04/02 03:20:56;;;;;;;;;;;;;;;16.24;100.00;98342.58;108520;1249;75197;-62
2024/04/02 03:23:24;;;;;;;36.60;6.60;;;;;;;16.18;100.00;98341.98;108513;1251;70433;-62
2024/04/02 03:25:55;;;;;;;29.50;6.00;;;;;;;16.15;100.00;98345.08;108579;1249;73430;-62
2024/04/02 03:28:25;;;;;;;30.80;6.60;;;;;;;16.10;100.00;98345.36;108622;1250;61832;-62
2024/04/02 03:30:57;;;;;;;25.40;5.20;;;;;;;16.05;100.00;98342.79;108578;1251;59937;-62
2024/04/02 03:33:26;;;;;;;23.20;6.00;;;;;;;16.02;100.00;98341.09;108600;1250;73432;-62
2024/04/02 03:35:54;;;;;;;27.00;6.30;;;;;;;15.97;100.00;98342.25;108573;1251;69380;-62
2024/04/02 03:38:22;;;;;;;25.70;6.30;;;;;;;15.92;100.00;98338.23;108545;1251;73750;-63
2024/04/02 03:40:50;;;;;;;34.60;6.10;;;;;;;15.94;100.00;98332.41;108428;1251;61394;-63
2024/04/02 03:43:17;;;;;;;23.60;5.90;;;;;;;15.88;100.00;98329.37;108608;1251;60149;-63
2024/04/02 03:45:49;;;;;;;31.30;6.30;;;;;;;15.83;100.00;98328.36;108653;1249;74828;-62
2024/04/02 03:48:18;;;;;;;25.40;5.50;;;;;;;15.75;100.00;98323.19;108435;1251;69916;-63
2024/04/02 03:50:49;;;;;;;28.40;5.50;;;;;;;15.74;100.00;98328.98;108577;1251;72426;-63
2024/04/02 03:53:16;;;;;;;22.70;5.70;;;;;;;15.69;100.00;98322.11;108475;1251;61809;-62
2024/04/02 03:55:44;;;;;;;24.60;5.40;;;;;;;15.69;100.00;98315.55;108533;1251;62425;-60
2024/04/02 03:58:11;;;;;;;34.00;6.00;;;;;;;15.68;100.00;98309.53;108527;1251;74947;-61
2024/04/02 04:00:42;;;;;;;25.90;5.40;;;;;;;15.65;100.00;98304.98;108542;1250;68093;-56
2024/04/02 04:03:10;;;;;;;33.10;6.10;;;;;;;15.64;100.00;98300.13;108496;1249;73721;-58
2024/04/02 04:05:38;;;;;;;27.50;6.10;;;;;;;15.62;100.00;98297.65;108660;1250;63265;-57
2024/04/02 04:08:06;;;;;;;32.10;6.60;;;;;;;15.56;100.00;98293.53;108541;1250;60078;-58
2024/04/02 04:10:37;;;;;;;28.40;5.70;;;;;;;15.56;100.00;98286.29;108465;1254;76721;-57
2024/04/02 04:13:05;;;;;;;28.20;5.60;;;;;;;15.60;100.00;98274.52;108488;1251;69286;-57
2024/04/02 04:15:32;;;;;;;26.00;5.80;;;;;;;15.60;100.00;98271.84;108584;1251;72376;-57
2024/04/02 04:18:00;;;;;;;31.00;5.90;;;;;;;15.62;100.00;98266.95;108508;1251;62369;-58
2024/04/02 04:20:30;;;;;;;21.20;5.70;;;;;;;15.62;100.00;98265.48;108609;1250;59708;-58
2024/04/02 04:22:58;;;;;;;24.60;6.30;;;;;;;15.63;100.00;98264.73;108444;1251;73437;-62
2024/04/02 04:25:27;;;;;;;24.60;5.90;;;;;;;15.60;100.00;98257.85;108487;1251;69405;-58
2024/04/02 04:27:56;;;;;;;34.40;6.10;;;;;;;15.61;100.00;98256.22;108164;1251;73015;-58
2024/04/02 04:30:24;;;;;;;30.50;6.70;;;;;;;15.61;100.00;98251.81;108330;1251;60492;-57
2024/04/02 04:32:52;;;;;;;22.40;5.80;;;;;;;15.57;100.00;98249.14;108590;1250;59601;-57
2024/04/02 04:35:20;;;;;;;21.50;5.70;;;;;;;15.55;100.00;98246.31;108517;1251;74685;-57
2024/04/02 04:37:47;;;;;;;21.70;5.90;;;;;;;15.54;100.00;98243.70;108562;1251;67871;-57
2024/04/02 04:40:15;;;;;;;22.30;5.50;;;;;;;15.59;100.00;98234.30;108609;1249;72635;-58
2024/04/02 04:42:43;;;;;;;24.50;5.40;;;;;;;15.62;100.00;98228.98;108373;1251;62324;-56
2024/04/02 04:45:10;;;;;;;;;;;;;;;15.62;100.00;98222.23;108436;1251;60027;-57
2024/04/02 04:47:38;;;;;;;20.30;5.50;;;;;;;15.63;100.00;98217.02;108599;1251;74454;-57
2024/04/02 04:50:06;;;;;;;25.10;5.70;;;;;;;15.66;100.00;98209.15;108611;1250;69176;-57
2024/04/02 04:52:34;;;;;;;24.90;6.30;;;;;;;15.62;100.00;98200.28;108640;1250;71489;-57
2024/04/02 04:55:04;;;;;;;21.60;6.70;;;;;;;15.70;100.00;98212.33;108486;1251;61514;-57
2024/04/02 04:57:33;;;;;;;28.40;7.00;;;;;;;15.73;100.00;98211.41;108285;1249;61835;-58
2024/04/02 05:00:04;;;;;;;30.80;7.10;;;;;;;15.73;100.00;98213.52;108546;1251;76271;-57
2024/04/02 05:02:32;;;;;;;22.10;5.30;;;;;;;15.71;100.00;98214.88;108408;1251;69813;-58
2024/04/02 05:05:00;;;;;;;24.00;6.00;;;;;;;15.72;100.00;98215.19;108615;1251;72474;-57
2024/04/02 05:07:27;;;;;;;;;;;;;;;15.72;100.00;98213.41;108590;1250;61384;-57
2024/04/02 05:09:55;;;;;;;;;;;;;;;15.74;100.00;98204.98;108521;1250;62064;-57
2024/04/02 05:12:23;;;;;;;29.00;6.00;;;;;;;15.75;100.00;98200.79;108591;1250;74384;-57
2024/04/02 05:14:50;;;;;;;23.10;5.70;;;;;;;15.79;100.00;98200.11;108583;1250;69675;-56
2024/04/02 05:17:18;;;;;;;33.00;6.10;;;;;;;15.82;100.00;98202.35;108488;1251;72396;-57
2024/04/02 05:19:45;;;;;;;29.80;6.30;;;;;;;15.88;100.00;98195.43;108561;1249;60782;-57
2024/04/02 05:22:13;;;;;;;36.60;6.20;;;;;;;15.92;100.00;98196.83;108561;1249;59481;-56
2024/04/02 05:24:40;;;;;;;27.20;5.70;;;;;;;15.92;100.00;98205.04;108587;1251;74472;-57
2024/04/02 05:27:08;;;;;;;30.20;7.30;;;;;;;15.97;100.00;98204.05;108587;1250;69631;-57
2024/04/02 05:29:36;;;;;;;23.70;6.60;;;;;;;16.01;100.00;98210.45;108569;1250;72462;-57
2024/04/02 05:32:04;;;;;;;24.50;5.80;;;;;;;16.06;100.00;98220.39;108565;1249;61388;-57
2024/04/02 05:34:33;;;;;;;31.30;6.00;;;;;;;16.10;100.00;98221.42;108570;1249;59786;-57
2024/04/02 05:37:02;;;;;;;23.00;6.60;;;;;;;16.14;100.00;98206.02;108478;1250;74821;-56
2024/04/02 05:39:30;;;;;;;30.40;5.80;;;;;;;16.17;100.00;98190.62;108443;1250;68229;-57
2024/04/02 05:41:59;;;;;;;31.00;6.20;;;;;;;16.20;100.00;98173.04;108262;1256;73726;-57
2024/04/02 05:44:28;;;;;;;32.00;6.10;;;;;;;16.23;100.00;98163.00;108536;1249;63657;-58
2024/04/02 05:46:56;;;;;;;26.80;6.60;;;;;;;16.28;100.00;98162.25;108225;1250;59948;-57
2024/04/02 05:49:24;;;;;;;36.50;6.70;;;;;;;16.32;100.00;98165.39;108564;1251;76791;-58
2024/04/02 05:51:52;;;;;;;33.50;6.00;;;;;;;16.36;100.00;98167.20;108279;1256;69220;-58
2024/04/02 05:54:21;;;;;;;27.10;5.80;;;;;;;16.39;100.00;98168.12;108049;1256;75267;-57
2024/04/02 05:56:48;;;;;;;;;;;;;;;16.36;100.00;98166.11;108517;1251;61804;-57
2024/04/02 06:02:29;;;;;;;31.40;6.80;;;;;;;16.53;100.00;98155.40;103691;1291;601747;-56
2024/04/02 06:04:57;;;;;;;37.40;5.80;;;;;;;16.53;100.00;98149.02;105923;1267;63376;-56
2024/04/02 06:07:24;;;;;;;;;;;;;;;16.59;100.00;98141.77;104612;1267;59771;-57
2024/04/02 06:09:52;;;;;;;26.50;5.50;;;;;;;16.57;100.00;98138.02;104637;1267;73151;-56
2024/04/02 06:12:20;;;;;;;26.10;5.60;;;;;;;16.58;100.00;98126.58;104660;1267;69213;-56
2024/04/02 06:14:48;;;;;;;27.10;6.10;;;;;;;16.72;100.00;98131.65;104728;1267;71366;-56
2024/04/02 06:17:16;;;;;;;30.00;6.20;;;;;;;16.80;100.00;98131.36;104541;1266;787240;-57
2024/04/02 06:19:43;;;;;;;;;;;;;;;16.80;100.00;98127.06;105490;1263;60134;-59
2024/04/02 06:22:11;;;;;;;31.90;5.30;;;;;;;16.81;100.00;98128.73;105317;1263;71974;-56
2024/04/02 06:24:39;;;;;;;30.90;6.30;;;;;;;16.86;100.00;98129.37;105101;1263;69811;-57
2024/04/02 06:27:07;;;;;;;26.00;5.70;;;;;;;16.96;100.00;98133.21;104891;1264;73373;-58
2024/04/02 06:29:35;;;;;;;24.20;6.10;;;;;;;17.01;100.00;98132.11;104825;1266;63720;-58
2024/04/02 06:32:03;;;;;;;26.10;6.80;;;;;;;16.97;100.00;98123.72;105364;1266;60403;-57
2024/04/02 06:34:30;;;;;;;25.00;6.10;;;;;;;17.12;100.00;98131.88;104465;1272;73766;-57
2024/04/02 06:36:58;;;;;;;32.50;6.70;;;;;;;17.14;100.00;98127.26;104672;1267;70190;-57
2024/04/02 06:39:25;;;;;;;28.70;6.70;;;;;;;17.28;100.00;98121.41;105305;1263;72481;-57
2024/04/02 06:41:53;;;;;;;28.50;5.80;;;;;;;17.31;100.00;98122.35;104949;1267;61547;-57
2024/04/02 06:44:21;;;;;;;32.40;6.00;;;;;;;17.25;100.00;98109.98;104991;1267;60573;-57
2024/04/02 06:46:49;;;;;;;;;;;;;;;17.25;100.00;98107.02;104436;1263;76000;-57
2024/04/02 06:49:17;;;;;;;26.50;7.10;;;;;;;17.36;100.00;98100.08;104824;1267;69283;-57
2024/04/02 06:51:48;;;;;;;35.40;6.30;;;;;;;17.45;100.00;98093.70;105823;1262;73541;-58
2024/04/02 06:54:16;;;;;;;29.60;5.90;;;;;;;17.52;100.00;98088.31;105067;1260;61675;-57
2024/04/02 06:56:43;;;;;;;43.90;8.80;;;;;;;17.55;100.00;98087.52;105563;1260;59342;-57
2024/04/02 06:59:11;;;;;;;26.20;7.00;;;;;;;17.60;100.00;98088.78;105701;1260;73611;-58
2024/04/02 07:01:39;;;;;;;;;;;;;;;17.64;100.00;98088.95;105638;1257;69649;-58
2024/04/02 07:04:07;;;;;;;35.60;6.00;;;;;;;17.73;100.00;98080.94;105128;1260;72490;-57
2024/04/02 07:06:35;;;;;;;31.70;7.50;;;;;;;17.88;100.00;98073.81;105736;1257;61659;-57
2024/04/02 07:09:03;;;;;;;38.80;8.30;;;;;;;17.91;100.00;98068.46;105580;1257;60704;-58
2024/04/02 07:11:31;;;;;;;35.30;6.80;;;;;;;17.99;100.00;98058.76;105281;1261;72730;-57
2024/04/02 07:13:58;;;;;;;35.00;6.90;;;;;;;18.11;100.00;98056.33;105453;1257;68417;-57
2024/04/02 07:16:26;;;;;;;31.30;6.90;;;;;;;18.24;100.00;98056.49;105570;1257;72782;-59
2024/04/02 07:18:54;;;;;;;34.30;6.30;;;;;;;18.35;100.00;98051.48;105877;1257;61062;-57
2024/04/02 07:21:21;;;;;;;38.00;7.30;;;;;;;18.46;100.00;98045.75;105479;1257;60520;-57
2024/04/02 07:23:49;;;;;;;;;;;;;;;18.58;100.00;98043.12;106239;1257;74271;-58
2024/04/02 07:26:17;;;;;;;33.20;6.20;;;;;;;18.70;100.00;98040.87;106148;1257;71503;-57
2024/04/02 07:28:45;;;;;;;37.20;6.80;;;;;;;18.78;100.00;98039.73;106261;1257;72229;-58
2024/04/02 07:31:15;;;;;;;34.00;6.90;;;;;;;18.74;100.00;98043.55;105907;1254;62600;-58
2024/04/02 07:33:43;;;;;;;32.00;6.20;;;;;;;18.80;100.00;98044.45;106463;1257;60835;-58
2024/04/02 07:36:10;;;;;;;;;;;;;;;18.95;100.00;98040.52;106622;1256;75153;-59
2024/04/02 07:38:38;;;;;;;33.20;6.30;;;;;;;19.05;99.76;98029.49;106365;1254;70622;-57
2024/04/02 07:41:06;;;;;;;32.40;6.70;;;;;;;19.18;98.64;98026.96;106236;1254;71555;-57
2024/04/02 07:43:34;;;;;;;36.90;6.40;;;;;;;19.29;99.43;98024.38;106580;1254;62625;-57
2024/04/02 07:46:03;;;;;;;36.20;6.80;;;;;;;19.42;97.72;98013.42;107495;1253;61739;-57
2024/04/02 07:48:31;;;;;;;34.20;6.80;;;;;;;19.54;97.58;98006.80;107266;1254;74645;-58
2024/04/02 07:51:07;;;;;;;33.00;5.90;;;;;;;19.72;95.61;98001.31;107885;1254;68292;-57
2024/04/02 07:53:36;;;;;;;31.30;6.60;;;;;;;19.91;94.50;97995.67;107325;1254;73638;-57
2024/04/02 07:56:04;;;;;;;36.20;7.00;;;;;;;20.04;92.60;97979.07;107723;1256;63689;-58
2024/04/02 07:58:34;;;;;;;33.00;6.80;;;;;;;20.16;90.47;97971.52;107816;1253;59709;-57
2024/04/02 08:01:03;;;;;;;36.50;6.30;;;;;;;20.28;89.03;97965.27;107288;1254;76100;-57
2024/04/02 08:03:31;;;;;;;34.80;6.20;;;;;;;20.40;87.93;97957.98;107043;1251;69568;-58
2024/04/02 08:06:04;;;;;;;28.40;5.90;;;;;;;20.51;86.43;97959.18;107904;1253;74727;-58
2024/04/02 08:08:34;;;;;;;31.80;6.70;;;;;;;20.57;85.08;97954.94;107662;1251;61905;-58
2024/04/02 08:11:03;;;;;;;40.30;7.00;;;;;;;20.66;82.96;97948.00;107352;1251;63881;-58
2024/04/02 08:13:31;;;;;;;36.10;6.70;;;;;;;20.89;79.30;97940.20;107360;1251;75324;-58
2024/04/02 08:15:58;;;;;;;32.70;6.10;;;;;;;20.89;79.53;97937.79;107718;1253;69509;-57
2024/04/02 08:18:26;;;;;;;40.40;7.50;;;;;;;21.08;78.65;97932.23;106921;1253;72624;-58
2024/04/02 08:20:55;;;;;;;35.00;7.10;;;;;;;21.21;75.82;97929.71;106974;1254;62944;-60
2024/04/02 08:23:23;;;;;;;34.90;6.80;;;;;;;21.27;73.59;97920.39;106570;1252;61577;-57
2024/04/02 08:25:52;;;;;;;33.10;6.70;;;;;;;21.36;72.38;97914.70;107186;1253;76096;-57
2024/04/02 08:28:21;;;;;;;34.50;6.20;;;;;;;21.47;72.88;97913.23;106835;1253;70693;-58
2024/04/02 08:30:50;;;;;;;41.40;7.00;;;;;;;21.57;71.43;97909.18;107130;1251;74631;-58
2024/04/02 08:33:18;;;;;;;37.90;6.50;;;;;;;21.66;70.74;97900.90;106640;1254;62816;-60
2024/04/02 08:35:49;;;;;;;;;;;;;;;21.79;70.58;97901.59;106164;1253;61591;-58
2024/04/02 08:38:17;;;;;;;34.00;6.60;;;;;;;21.98;68.52;97896.39;105843;1258;74486;-58
2024/04/02 08:40:54;;;;;;;34.50;6.30;;;;;;;22.14;67.82;97894.00;105843;1251;70497;-58
2024/04/02 08:43:22;;;;;;;42.80;6.80;;;;;;;22.22;65.60;97893.92;105868;1257;72504;-58
2024/04/02 08:45:50;;;;;;;27.20;5.90;;;;;;;22.20;63.87;97889.19;106248;1253;60771;-58
2024/04/02 08:48:17;;;;;;;35.50;7.30;;;;;;;22.29;63.21;97884.24;105733;1253;60517;-58
2024/04/02 08:50:46;;;;;;;45.90;6.70;;;;;;;22.30;63.15;97893.23;106407;1254;73954;-58
2024/04/02 08:53:13;;;;;;;36.90;7.40;;;;;;;22.63;61.46;97888.02;106436;1253;69519;-58
2024/04/02 08:55:41;;;;;;;43.40;7.50;;;;;;;22.95;58.97;97886.75;105929;1256;73158;-58
2024/04/02 08:58:08;;;;;;;;;;;;;;;23.42;57.28;97882.02;105540;1253;60475;-58
2024/04/02 09:00:36;;;;;;;;;;;;;;;23.62;56.53;97873.73;106015;1254;61721;-57
2024/04/02 09:03:04;;;;;;;43.50;7.80;;;;;;;23.55;56.49;97868.62;105524;1254;74456;-58
2024/04/02 09:05:32;;;;;;;37.60;9.90;;;;;;;23.06;57.49;97858.32;105564;1254;69594;-57
2024/04/02 09:08:01;;;;;;;48.40;10.50;;;;;;;23.03;57.16;97856.52;106031;1254;72428;-58
2024/04/02 09:10:28;;;;;;;46.80;9.20;;;;;;;23.44;56.73;97848.99;106826;1252;59900;-58
2024/04/02 09:12:56;;;;;;;41.70;8.90;;;;;;;23.29;55.83;97839.21;106217;1254;60366;-57
2024/04/02 09:15:24;;;;;;;43.30;8.70;;;;;;;23.25;55.72;97836.15;106224;1253;76600;-58
2024/04/02 09:17:51;;;;;;;45.00;8.90;;;;;;;23.31;55.68;97840.20;105857;1252;70556;-59
2024/04/02 09:20:19;;;;;;;;;;;;;;;23.47;54.31;97833.56;105981;1254;73560;-60
2024/04/02 09:22:49;;;;;;;39.50;7.10;;;;;;;23.55;52.77;97830.83;105694;1260;60431;-58
2024/04/02 09:25:17;;;;;;;44.60;7.60;;;;;;;23.59;52.22;97830.35;105420;1259;60961;-59
2024/04/02 09:27:45;;;;;;;42.00;8.30;;;;;;;23.68;51.25;97825.45;106059;1256;73779;-57
2024/04/02 09:30:12;;;;;;;34.80;6.70;;;;;;;23.72;50.71;97810.99;105988;1254;69908;-58
2024/04/02 09:32:42;;;;;;;;;;;;;;;23.80;50.88;97803.55;105785;1254;73100;-59
2024/04/02 09:35:13;;;;;;;41.40;7.80;;;;;;;23.92;49.55;97796.27;105956;1253;60548;-58
2024/04/02 09:37:41;;;;;;;37.30;6.80;;;;;;;24.00;49.40;97796.41;106185;1254;60559;-57
2024/04/02 09:40:09;;;;;;;35.10;7.90;;;;;;;24.07;49.44;97791.13;105578;1253;74515;-57
2024/04/02 09:42:38;;;;;;;;;;;;;;;24.19;49.21;97792.19;105757;1254;70546;-57
2024/04/02 09:45:08;;;;;;;42.20;8.10;;;;;;;24.32;48.54;97785.51;106384;1254;71953;-57
2024/04/02 09:47:35;;;;;;;37.10;7.70;;;;;;;24.37;48.38;97779.27;106040;1253;60776;-58
2024/04/02 09:50:03;;;;;;;35.10;7.40;;;;;;;24.34;47.47;97778.92;105963;1256;60402;-57
2024/04/02 09:52:31;;;;;;;41.90;7.80;;;;;;;24.63;47.21;97782.73;105511;1259;73635;-59
2024/04/02 09:54:58;;;;;;;38.50;8.40;;;;;;;24.37;47.37;97780.84;106074;1253;70159;-58
2024/04/02 09:57:27;;;;;;;;;;;;;;;24.30;47.89;97771.39;105235;1253;72618;-59
2024/04/02 09:59:55;;;;;;;35.30;7.10;;;;;;;24.33;47.63;97763.80;105654;1254;60530;-59
2024/04/02 10:02:24;;;;;;;33.10;7.60;;;;;;;24.40;47.40;97765.48;106017;1253;60504;-58
2024/04/02 10:04:53;;;;;;;33.50;7.60;;;;;;;24.42;47.55;97762.52;105597;1253;74315;-58
2024/04/02 10:07:28;;;;;;;42.80;7.20;;;;;;;24.42;46.94;97759.58;105579;1253;68662;-58
2024/04/02 10:09:57;;;;;;;35.30;7.10;;;;;;;24.39;46.92;97758.08;105805;1254;73244;-58
2024/04/02 10:12:31;;;;;;;43.20;7.10;;;;;;;24.40;47.53;97755.73;105802;1253;62509;-59
2024/04/02 10:15:11;;;;;;;35.20;7.60;;;;;;;24.40;47.63;97749.45;105741;1253;62310;-58
2024/04/02 10:17:38;;;;;;;35.50;7.00;;;;;;;24.49;47.05;97737.64;105205;1253;75315;-58
2024/04/02 10:20:23;;;;;;;;;;;;;;;24.55;47.22;97739.50;105316;1253;70517;-58
2024/04/02 10:22:54;;;;;;;37.30;7.90;;;;;;;24.61;46.96;97737.33;105602;1253;73396;-57
2024/04/02 10:25:27;;;;;;;35.30;7.30;;;;;;;24.62;46.32;97742.91;104537;1257;61426;-58
2024/04/02 10:27:59;;;;;;;36.60;7.00;;;;;;;24.59;46.08;97733.98;104719;1256;61376;-59
2024/04/02 10:30:27;;;;;;;38.90;7.20;;;;;;;24.59;46.15;97728.40;105347;1253;74715;-58
2024/04/02 10:32:55;;;;;;;;;;;;;;;24.61;45.89;97719.39;104919;1256;69771;-58
2024/04/02 10:35:26;;;;;;;40.40;7.70;;;;;;;24.63;45.72;97726.64;105017;1256;73603;-58
2024/04/02 10:37:56;;;;;;;47.80;8.40;;;;;;;24.68;44.92;97717.72;104608;1257;61150;-57
2024/04/02 10:40:24;;;;;;;33.70;7.20;;;;;;;24.76;45.32;97718.35;104744;1256;61274;-61
2024/04/02 10:42:53;;;;;;;46.10;7.90;;;;;;;24.83;44.87;97716.98;104870;1253;77927;-59
2024/04/02 10:45:21;;;;;;;40.10;8.00;;;;;;;24.91;44.89;97712.63;105018;1253;70358;-59
2024/04/02 10:47:50;;;;;;;46.90;8.00;;;;;;;24.98;44.80;97714.84;105134;1254;71625;-59
2024/04/02 10:50:22;;;;;;;33.50;7.20;;;;;;;25.04;44.57;97711.66;105257;1258;61337;-60
2024/04/02 10:52:53;;;;;;;38.70;7.10;;;;;;;25.05;44.34;97705.55;105120;1256;61303;-59
2024/04/02 10:57:48;;;;;;;32.90;7.10;;;;;;;24.84;45.30;97693.12;101349;1294;601808;-58
2024/04/02 11:00:16;;;;;;;39.80;9.20;;;;;;;25.22;44.38;97687.19;103869;1279;60490;-59
2024/04/02 11:02:44;;;;;;;42.10;8.30;;;;;;;25.32;44.32;97679.14;104182;1263;60093;-60
2024/04/02 11:05:16;;;;;;;37.80;8.30;;;;;;;25.44;43.84;97671.55;103882;1267;73089;-59
2024/04/02 11:07:45;;;;;;;32.50;7.30;;;;;;;25.59;43.43;97664.92;104603;1263;68636;-59
2024/04/02 11:10:13;;;;;;;39.80;7.50;;;;;;;25.63;43.29;97668.09;104054;1266;1205680;-64
2024/04/02 11:12:41;;;;;;;33.90;8.10;;;;;;;25.70;42.87;97661.91;104404;1275;59802;-60
2024/04/02 11:15:09;;;;;;;44.10;8.30;;;;;;;25.77;41.90;97658.09;104054;1274;60214;-60
2024/04/02 11:17:37;;;;;;;35.40;8.80;;;;;;;25.75;41.39;97648.15;104354;1259;71977;-60
2024/04/02 11:20:09;;;;;;;;;;;;;;;25.76;41.64;97646.95;104121;1275;70541;-60
2024/04/02 11:25:24;;;;;;;38.20;8.20;;;;;;;25.93;40.94;97635.48;104301;1264;60937;-60
2024/04/02 11:28:04;;;;;;;32.50;7.60;;;;;;;25.99;40.76;97632.16;104220;1260;60548;-59
2024/04/02 11:30:31;;;;;;;38.30;7.90;;;;;;;26.07;40.38;97624.54;104631;1260;73845;-57
2024/04/02 11:32:59;;;;;;;39.90;8.60;;;;;;;26.13;40.60;97613.58;104346;1260;69976;-58